Terminal Aerodrome Forecast
Issued by NWS

Home | Current Version | Previous Version | Text Only | Print | Product List | Glossary On
Versions: 1 2 3 4 5 6 7 8 9 10 11 12 13 14 15 16 17 18 19 20
000
FTPQ31 PGUM 240524
TAFGUM
TAF

TAF
PGWT 240521Z 2406/2506 21012G20KT P6SM VCSH SCT015 SCT030 BKN150
     FM240800 22009KT P6SM VCSH SCT015 BKN120=

USA.gov is the U.S. government's official web portal to all federal, state and local government web resources and services.